Time;durP1;ratioP1;P1;durP2;ratioP2;P2;SDS_P1;SDS_P2;PMS_P1;PMS_P2;Temp;Humidity;BMP_temperature;BMP_pressure;BME280_temperature;BME280_humidity;BME280_pressure;Samples;Min_cycle;Max_cycle;Signal;HPM_P1;HPM_P2
2023/06/18 00:00:15;;;;;;;18.98;11.32;;;;;;;;;;5017157;28;20041;-60
2023/06/18 00:02:42;;;;;;;20.40;10.85;;;;;;;;;;5012942;28;20036;-60
2023/06/18 00:05:08;;;;;;;17.27;11.10;;;;;;;;;;5022388;28;20496;-60
2023/06/18 00:07:34;;;;;;;18.40;11.13;;;;;;;;;;5003510;28;20037;-59
2023/06/18 00:10:03;;;;;;;18.70;11.25;;;;;;;;;;5007410;28;20045;-59
2023/06/18 00:12:29;;;;;;;19.25;11.50;;;;;;;;;;5014653;28;20042;-59
2023/06/18 00:14:55;;;;;;;17.15;11.18;;;;;;;;;;5001676;28;20046;-59
2023/06/18 00:17:22;;;;;;;17.42;11.40;;;;;;;;;;5009825;28;20038;-59
2023/06/18 00:19:48;;;;;;;17.30;11.45;;;;;;;;;;5006139;28;20041;-60
2023/06/18 00:22:14;;;;;;;17.63;10.73;;;;;;;;;;5009760;28;20215;-60
2023/06/18 00:24:41;;;;;;;15.88;11.13;;;;;;;;;;5009394;28;20050;-58
2023/06/18 00:27:07;;;;;;;15.98;10.13;;;;;;;;;;5011149;28;20042;-58
2023/06/18 00:29:35;;;;;;;16.38;10.15;;;;;;;;;;5008346;28;20037;-59
2023/06/18 00:32:03;;;;;;;17.35;10.77;;;;;;;;;;5008663;28;20042;-58
2023/06/18 00:34:32;;;;;;;17.50;10.40;;;;;;;;;;5009675;28;20043;-61
2023/06/18 00:37:02;;;;;;;19.40;11.55;;;;;;;;;;5011723;28;20057;-60
2023/06/18 00:39:29;;;;;;;16.60;10.23;;;;;;;;;;5009635;28;20042;-60
2023/06/18 00:41:55;;;;;;;16.90;10.82;;;;;;;;;;5009055;28;20038;-60
2023/06/18 00:44:21;;;;;;;17.23;10.73;;;;;;;;;;5006029;28;20043;-60
2023/06/18 00:46:49;;;;;;;18.30;10.77;;;;;;;;;;5009896;28;20049;-60
2023/06/18 00:49:18;;;;;;;16.92;10.75;;;;;;;;;;5001508;28;20034;-60
2023/06/18 00:51:46;;;;;;;16.60;10.15;;;;;;;;;;4997805;28;20050;-60
2023/06/18 00:54:14;;;;;;;19.65;10.75;;;;;;;;;;5010702;28;20037;-60
2023/06/18 00:56:53;;;;;;;19.17;11.20;;;;;;;;;;5005373;28;20403;-60
2023/06/18 00:59:24;;;;;;;15.83;10.77;;;;;;;;;;5006254;28;20496;-61
2023/06/18 01:01:54;;;;;;;16.13;11.02;;;;;;;;;;5012712;28;20058;-60
2023/06/18 01:04:25;;;;;;;18.58;10.88;;;;;;;;;;5010759;28;20030;-60
2023/06/18 01:06:53;;;;;;;18.05;10.88;;;;;;;;;;5004595;28;20050;-60
2023/06/18 01:09:21;;;;;;;19.25;10.77;;;;;;;;;;5018645;28;20030;-60
2023/06/18 01:11:52;;;;;;;16.95;10.98;;;;;;;;;;4997446;28;20563;-60
2023/06/18 01:14:25;;;;;;;17.73;11.38;;;;;;;;;;4998160;28;20041;-60
2023/06/18 01:16:54;;;;;;;17.48;10.98;;;;;;;;;;5008470;28;20057;-60
2023/06/18 01:19:40;;;;;;;16.05;10.68;;;;;;;;;;5006890;28;20038;-60
2023/06/18 01:22:30;;;;;;;16.83;10.55;;;;;;;;;;5014989;28;20411;-60
2023/06/18 01:24:58;;;;;;;18.30;11.00;;;;;;;;;;5002283;28;20111;-61
2023/06/18 01:27:27;;;;;;;18.58;10.50;;;;;;;;;;5005695;28;20064;-60
2023/06/18 01:30:20;;;;;;;17.60;10.55;;;;;;;;;;5007847;28;20360;-60
2023/06/18 01:32:47;;;;;;;17.00;10.45;;;;;;;;;;5014698;28;20087;-60
2023/06/18 01:35:16;;;;;;;14.35;9.68;;;;;;;;;;5010922;28;20034;-60
2023/06/18 01:37:48;;;;;;;14.63;9.52;;;;;;;;;;5015383;28;20042;-60
2023/06/18 01:40:40;;;;;;;14.35;9.75;;;;;;;;;;5013062;28;20050;-60
2023/06/18 01:43:11;;;;;;;15.18;10.15;;;;;;;;;;5004875;28;20388;-60
2023/06/18 01:45:46;;;;;;;15.80;10.55;;;;;;;;;;5008039;28;20046;-60
2023/06/18 01:48:13;;;;;;;16.38;10.52;;;;;;;;;;5013297;28;20124;-60
2023/06/18 01:50:43;;;;;;;15.80;10.57;;;;;;;;;;5007203;28;20041;-60
2023/06/18 01:53:15;;;;;;;16.33;10.82;;;;;;;;;;5005908;28;20443;-59
2023/06/18 01:55:44;;;;;;;16.48;10.43;;;;;;;;;;5009928;28;20033;-60
2023/06/18 01:58:13;;;;;;;16.75;10.82;;;;;;;;;;4989284;28;20042;-60
2023/06/18 02:00:40;;;;;;;16.27;10.85;;;;;;;;;;5003990;28;20038;-60
2023/06/18 02:03:07;;;;;;;16.23;11.30;;;;;;;;;;5007517;28;20033;-60
2023/06/18 02:05:34;;;;;;;17.05;10.02;;;;;;;;;;5017203;28;20489;-60
2023/06/18 02:08:00;;;;;;;17.73;10.68;;;;;;;;;;5015030;28;20064;-60
2023/06/18 02:10:26;;;;;;;16.05;10.75;;;;;;;;;;5005166;28;20030;-60
2023/06/18 02:12:53;;;;;;;16.13;10.73;;;;;;;;;;5014872;28;20392;-60
2023/06/18 02:15:20;;;;;;;15.57;10.30;;;;;;;;;;5001213;28;20041;-60
2023/06/18 02:17:46;;;;;;;16.65;9.75;;;;;;;;;;5004038;28;20042;-60
2023/06/18 02:20:13;;;;;;;16.85;10.50;;;;;;;;;;5016102;28;20061;-59
2023/06/18 02:22:39;;;;;;;16.33;9.73;;;;;;;;;;5006901;28;20042;-60
2023/06/18 02:25:07;;;;;;;17.58;10.05;;;;;;;;;;5004939;28;20503;-61
2023/06/18 02:27:33;;;;;;;16.23;9.93;;;;;;;;;;5000403;28;20045;-60
2023/06/18 02:30:01;;;;;;;13.90;9.75;;;;;;;;;;5016861;28;20044;-60
2023/06/18 02:32:30;;;;;;;16.48;10.75;;;;;;;;;;5009844;28;20037;-59
2023/06/18 02:34:58;;;;;;;15.70;9.40;;;;;;;;;;5010249;28;20502;-60
2023/06/18 02:37:24;;;;;;;15.55;10.30;;;;;;;;;;5000637;28;20067;-60
2023/06/18 02:39:50;;;;;;;16.02;9.98;;;;;;;;;;5010328;28;20507;-60
2023/06/18 02:42:20;;;;;;;17.05;10.43;;;;;;;;;;5001962;28;20053;-59
2023/06/18 02:44:48;;;;;;;14.88;10.27;;;;;;;;;;5006012;28;20065;-60
2023/06/18 02:47:14;;;;;;;17.20;10.80;;;;;;;;;;5006028;28;20042;-58
2023/06/18 02:49:40;;;;;;;17.25;11.13;;;;;;;;;;5003878;28;20057;-59
2023/06/18 02:52:07;;;;;;;21.00;12.05;;;;;;;;;;5003214;28;20050;-58
2023/06/18 02:54:33;;;;;;;17.67;11.93;;;;;;;;;;5002869;28;20026;-59
2023/06/18 02:56:59;;;;;;;17.00;10.90;;;;;;;;;;5011971;28;20514;-59
2023/06/18 02:59:26;;;;;;;19.65;11.13;;;;;;;;;;5008353;28;20037;-60
2023/06/18 03:01:53;;;;;;;15.95;11.32;;;;;;;;;;5003108;28;20577;-58
2023/06/18 03:04:19;;;;;;;17.95;11.05;;;;;;;;;;5007363;28;20396;-60
2023/06/18 03:06:46;;;;;;;15.43;10.48;;;;;;;;;;5004651;28;20049;-60
2023/06/18 03:09:14;;;;;;;17.50;11.25;;;;;;;;;;5003913;28;20046;-60
2023/06/18 03:11:40;;;;;;;19.65;11.50;;;;;;;;;;4998164;28;20065;-60
2023/06/18 03:14:08;;;;;;;14.70;10.32;;;;;;;;;;5002083;28;20042;-60
2023/06/18 03:16:34;;;;;;;18.95;11.27;;;;;;;;;;5012454;28;20041;-59
2023/06/18 03:19:01;;;;;;;17.92;10.80;;;;;;;;;;5010122;28;20435;-59
2023/06/18 03:21:30;;;;;;;20.17;11.15;;;;;;;;;;5001589;28;20053;-60
2023/06/18 03:23:57;;;;;;;17.50;10.88;;;;;;;;;;4994841;28;20046;-59
2023/06/18 03:26:23;;;;;;;17.77;11.10;;;;;;;;;;5012122;28;20034;-59
2023/06/18 03:28:50;;;;;;;15.77;10.32;;;;;;;;;;5005545;28;20042;-60
2023/06/18 03:31:16;;;;;;;16.30;10.70;;;;;;;;;;4996738;28;20492;-60
2023/06/18 03:33:43;;;;;;;15.88;10.30;;;;;;;;;;5009535;28;20049;-60
2023/06/18 03:36:15;;;;;;;15.52;10.18;;;;;;;;;;5023334;28;20037;-59
2023/06/18 03:38:42;;;;;;;17.10;10.65;;;;;;;;;;5009048;28;20046;-60
2023/06/18 03:41:08;;;;;;;18.42;11.30;;;;;;;;;;5010064;28;20503;-60
2023/06/18 03:43:34;;;;;;;16.67;10.68;;;;;;;;;;5004805;28;20583;-59
2023/06/18 03:46:01;;;;;;;18.08;10.95;;;;;;;;;;5009861;28;20048;-60
2023/06/18 03:48:29;;;;;;;17.27;10.50;;;;;;;;;;5019711;28;20034;-60
2023/06/18 03:50:56;;;;;;;18.98;10.98;;;;;;;;;;5009097;28;20041;-60
2023/06/18 03:53:22;;;;;;;18.08;10.50;;;;;;;;;;5009173;28;20511;-60
2023/06/18 03:55:48;;;;;;;17.58;10.38;;;;;;;;;;5006100;28;20073;-59
2023/06/18 03:58:18;;;;;;;16.80;10.90;;;;;;;;;;5021522;28;20487;-60
2023/06/18 04:00:47;;;;;;;14.60;10.10;;;;;;;;;;5015714;28;20072;-60
2023/06/18 04:03:13;;;;;;;15.15;10.40;;;;;;;;;;5008687;28;20053;-60
2023/06/18 04:05:39;;;;;;;15.00;10.38;;;;;;;;;;5004753;28;20054;-61
2023/06/18 04:08:06;;;;;;;18.35;11.05;;;;;;;;;;4999994;28;20045;-60
2023/06/18 04:10:32;;;;;;;18.90;10.50;;;;;;;;;;5018788;28;20045;-60
2023/06/18 04:12:58;;;;;;;15.98;10.13;;;;;;;;;;4994442;28;20546;-60
2023/06/18 04:15:24;;;;;;;15.80;10.85;;;;;;;;;;5003579;28;20030;-60
2023/06/18 04:17:51;;;;;;;17.35;11.15;;;;;;;;;;5015046;28;20045;-60
2023/06/18 04:20:17;;;;;;;17.52;10.68;;;;;;;;;;5006054;28;20540;-60
2023/06/18 04:22:44;;;;;;;15.07;10.35;;;;;;;;;;5011324;28;20057;-60
2023/06/18 04:25:12;;;;;;;18.58;10.43;;;;;;;;;;5013158;28;20057;-60
2023/06/18 04:27:39;;;;;;;16.30;10.68;;;;;;;;;;5004410;28;20050;-61
2023/06/18 04:30:07;;;;;;;19.08;11.60;;;;;;;;;;5001060;28;20046;-60
2023/06/18 04:32:33;;;;;;;18.55;11.27;;;;;;;;;;5015905;28;20420;-60
2023/06/18 04:35:00;;;;;;;17.25;10.93;;;;;;;;;;5011218;28;20046;-60
2023/06/18 04:37:27;;;;;;;17.42;10.85;;;;;;;;;;5016629;28;20055;-60
2023/06/18 04:39:53;;;;;;;17.27;10.60;;;;;;;;;;5011343;28;20038;-60
2023/06/18 04:42:20;;;;;;;20.23;11.68;;;;;;;;;;5005555;28;20046;-61
2023/06/18 04:44:47;;;;;;;18.92;10.80;;;;;;;;;;5011594;28;20480;-60
2023/06/18 04:47:13;;;;;;;16.70;11.35;;;;;;;;;;5000554;28;20046;-61
2023/06/18 04:49:39;;;;;;;18.23;10.77;;;;;;;;;;5015615;28;20076;-60
2023/06/18 04:52:07;;;;;;;16.98;10.82;;;;;;;;;;5002313;28;20492;-60
2023/06/18 04:54:34;;;;;;;16.27;11.30;;;;;;;;;;4997857;28;20410;-59
2023/06/18 04:57:01;;;;;;;16.30;11.27;;;;;;;;;;5007115;28;20117;-59
2023/06/18 04:59:27;;;;;;;16.83;11.13;;;;;;;;;;5013700;28;20042;-59
2023/06/18 05:01:55;;;;;;;16.40;11.15;;;;;;;;;;4998487;28;20495;-59
2023/06/18 05:04:21;;;;;;;16.88;11.55;;;;;;;;;;5014373;28;20034;-59
2023/06/18 05:06:47;;;;;;;17.85;11.18;;;;;;;;;;5005014;28;20044;-59
2023/06/18 05:09:13;;;;;;;19.15;11.80;;;;;;;;;;5005177;28;20045;-59
2023/06/18 05:11:40;;;;;;;17.48;11.73;;;;;;;;;;4998654;28;20053;-59
2023/06/18 05:14:06;;;;;;;17.50;11.90;;;;;;;;;;5019428;28;20411;-59
2023/06/18 05:16:33;;;;;;;16.85;11.88;;;;;;;;;;5010869;28;20046;-59
2023/06/18 05:19:01;;;;;;;19.48;12.07;;;;;;;;;;5006644;28;20042;-61
2023/06/18 05:21:27;;;;;;;18.25;12.27;;;;;;;;;;5004330;28;20421;-60
2023/06/18 05:23:54;;;;;;;18.80;12.00;;;;;;;;;;5001123;28;20034;-60
2023/06/18 05:26:23;;;;;;;20.55;11.98;;;;;;;;;;5016033;28;20065;-60
2023/06/18 05:28:50;;;;;;;17.95;11.57;;;;;;;;;;5012561;28;20046;-60
2023/06/18 05:31:18;;;;;;;18.52;11.32;;;;;;;;;;5006999;28;20514;-61
2023/06/18 05:33:44;;;;;;;19.15;11.45;;;;;;;;;;5008967;28;20042;-60
2023/06/18 05:36:10;;;;;;;16.20;11.82;;;;;;;;;;5006559;28;20554;-59
2023/06/18 05:38:37;;;;;;;19.48;11.57;;;;;;;;;;5006000;28;20045;-60
2023/06/18 05:41:03;;;;;;;17.90;11.38;;;;;;;;;;5007962;28;20053;-60
2023/06/18 05:43:29;;;;;;;18.33;11.90;;;;;;;;;;5003778;28;20034;-60
2023/06/18 05:45:55;;;;;;;19.58;12.50;;;;;;;;;;5003484;28;20389;-60
2023/06/18 05:48:22;;;;;;;17.70;11.80;;;;;;;;;;5009621;28;20049;-60
2023/06/18 05:51:05;;;;;;;17.48;11.70;;;;;;;;;;5018555;28;20427;-60
2023/06/18 05:53:33;;;;;;;17.35;11.55;;;;;;;;;;5004417;28;20033;-60
2023/06/18 05:55:59;;;;;;;17.40;11.35;;;;;;;;;;5005712;28;20031;-60
2023/06/18 05:58:26;;;;;;;18.95;12.30;;;;;;;;;;5004030;28;20034;-60
2023/06/18 06:00:52;;;;;;;19.33;12.02;;;;;;;;;;5013403;28;20510;-60
2023/06/18 06:03:19;;;;;;;17.77;11.35;;;;;;;;;;5019948;28;20491;-60
2023/06/18 06:05:45;;;;;;;21.35;12.75;;;;;;;;;;5007128;28;20037;-61
2023/06/18 06:08:12;;;;;;;17.88;12.57;;;;;;;;;;5000855;28;20110;-61
2023/06/18 06:10:40;;;;;;;20.95;12.55;;;;;;;;;;4999580;28;20133;-61
2023/06/18 06:13:06;;;;;;;19.83;12.65;;;;;;;;;;5007880;28;20038;-60
2023/06/18 06:15:32;;;;;;;17.98;12.15;;;;;;;;;;5006075;28;20041;-61
2023/06/18 06:18:01;;;;;;;20.23;12.40;;;;;;;;;;5017525;28;20038;-61
2023/06/18 06:20:28;;;;;;;19.13;12.95;;;;;;;;;;4985741;28;20054;-61
2023/06/18 06:22:54;;;;;;;18.65;12.50;;;;;;;;;;4984742;28;20041;-61
2023/06/18 06:25:20;;;;;;;21.85;14.30;;;;;;;;;;5001926;28;20036;-60
2023/06/18 06:27:47;;;;;;;20.88;12.77;;;;;;;;;;5023066;28;20049;-60
2023/06/18 06:30:13;;;;;;;19.77;12.93;;;;;;;;;;5012100;28;20038;-60
2023/06/18 06:32:39;;;;;;;21.60;13.18;;;;;;;;;;4999677;28;20177;-61
2023/06/18 06:35:06;;;;;;;18.45;13.07;;;;;;;;;;4992659;28;20034;-60
2023/06/18 06:37:32;;;;;;;20.40;12.63;;;;;;;;;;5005409;28;20033;-60
2023/06/18 06:39:59;;;;;;;20.52;12.40;;;;;;;;;;5012010;28;20050;-60
2023/06/18 06:42:29;;;;;;;19.88;12.98;;;;;;;;;;5005074;28;20045;-60
2023/06/18 06:45:13;;;;;;;17.92;12.15;;;;;;;;;;4999455;28;20037;-60
2023/06/18 06:47:59;;;;;;;18.27;12.65;;;;;;;;;;5005005;28;20060;-60
2023/06/18 06:50:54;;;;;;;19.55;12.35;;;;;;;;;;5002965;28;20516;-60
2023/06/18 06:53:27;;;;;;;21.90;13.02;;;;;;;;;;5019992;28;20042;-60
2023/06/18 06:55:53;;;;;;;17.17;11.60;;;;;;;;;;5014775;28;20507;-60
2023/06/18 06:58:22;;;;;;;17.80;12.15;;;;;;;;;;5020332;28;20049;-60
2023/06/18 07:00:48;;;;;;;17.10;11.07;;;;;;;;;;5003955;28;20045;-60
2023/06/18 07:03:14;;;;;;;19.27;12.52;;;;;;;;;;5009205;28;20565;-60
2023/06/18 07:05:40;;;;;;;22.02;12.50;;;;;;;;;;5008901;28;20049;-60
2023/06/18 07:08:06;;;;;;;21.90;13.15;;;;;;;;;;5022251;28;20038;-59
2023/06/18 07:10:34;;;;;;;17.60;13.05;;;;;;;;;;5003818;28;20046;-60
2023/06/18 07:13:00;;;;;;;21.75;12.68;;;;;;;;;;5015905;28;20042;-60
2023/06/18 07:15:26;;;;;;;18.90;12.70;;;;;;;;;;5009830;28;20400;-59
2023/06/18 07:17:53;;;;;;;24.92;13.63;;;;;;;;;;5010720;28;20034;-59
2023/06/18 07:20:19;;;;;;;20.52;13.18;;;;;;;;;;5005717;28;20030;-59
2023/06/18 07:22:45;;;;;;;25.42;13.80;;;;;;;;;;5007550;28;20408;-59
2023/06/18 07:25:11;;;;;;;21.92;14.18;;;;;;;;;;5009517;28;20053;-59
2023/06/18 07:27:37;;;;;;;23.13;14.25;;;;;;;;;;5023831;28;20056;-58
2023/06/18 07:30:04;;;;;;;20.35;14.30;;;;;;;;;;5013168;28;20631;-59
2023/06/18 07:32:31;;;;;;;23.60;14.68;;;;;;;;;;5021818;28;20049;-60
2023/06/18 07:34:57;;;;;;;21.05;14.38;;;;;;;;;;5011588;28;20392;-62
2023/06/18 07:37:24;;;;;;;22.13;14.88;;;;;;;;;;5014774;28;20029;-61
2023/06/18 07:39:50;;;;;;;20.60;14.25;;;;;;;;;;5009143;28;20145;-60
2023/06/18 07:42:16;;;;;;;21.13;13.98;;;;;;;;;;5008143;28;20451;-61
2023/06/18 07:44:42;;;;;;;22.63;14.05;;;;;;;;;;5011877;28;20046;-60
2023/06/18 07:47:08;;;;;;;21.15;14.40;;;;;;;;;;5008961;28;20049;-60
2023/06/18 07:49:34;;;;;;;22.05;14.50;;;;;;;;;;5009573;28;20057;-60
2023/06/18 07:52:01;;;;;;;20.83;14.02;;;;;;;;;;5010844;28;20030;-60
2023/06/18 07:54:27;;;;;;;22.50;14.40;;;;;;;;;;5014555;28;20491;-60
2023/06/18 07:56:54;;;;;;;23.02;14.63;;;;;;;;;;5016613;28;20549;-60
2023/06/18 07:59:20;;;;;;;23.27;13.95;;;;;;;;;;5019326;28;20029;-60
2023/06/18 08:01:46;;;;;;;20.27;14.27;;;;;;;;;;5007775;28;20475;-60
2023/06/18 08:04:12;;;;;;;22.63;14.95;;;;;;;;;;5010288;28;20040;-61
2023/06/18 08:06:38;;;;;;;25.10;14.05;;;;;;;;;;5011199;28;20057;-60
2023/06/18 08:09:05;;;;;;;24.38;14.52;;;;;;;;;;5019087;28;20042;-60
2023/06/18 08:11:31;;;;;;;36.75;21.02;;;;;;;;;;5004500;28;20038;-60
2023/06/18 08:13:57;;;;;;;26.25;16.45;;;;;;;;;;5022170;28;20049;-61
2023/06/18 08:16:23;;;;;;;28.42;17.58;;;;;;;;;;5011847;28;20407;-60
2023/06/18 08:18:52;;;;;;;24.67;16.27;;;;;;;;;;5010650;28;20044;-61
2023/06/18 08:21:18;;;;;;;;;;;;;;;;;;5012784;28;20125;-61
2023/06/18 08:23:44;;;;;;;29.08;15.15;;;;;;;;;;5019695;28;20032;-61
2023/06/18 08:26:11;;;;;;;26.98;15.07;;;;;;;;;;5006537;28;20056;-60
2023/06/18 08:28:37;;;;;;;23.88;15.30;;;;;;;;;;5004676;28;20065;-60
2023/06/18 08:31:03;;;;;;;27.13;15.25;;;;;;;;;;5011370;28;20069;-61
2023/06/18 08:33:29;;;;;;;28.50;15.18;;;;;;;;;;5004170;28;20045;-60
2023/06/18 08:35:55;;;;;;;24.02;15.48;;;;;;;;;;5014523;28;20050;-61
2023/06/18 08:38:21;;;;;;;26.60;15.63;;;;;;;;;;5014636;28;20129;-61
2023/06/18 08:41:02;;;;;;;24.48;15.45;;;;;;;;;;5013131;28;20046;-59
2023/06/18 08:43:37;;;;;;;23.20;15.60;;;;;;;;;;5002269;28;20056;-61
2023/06/18 08:46:10;;;;;;;24.23;15.00;;;;;;;;;;5008223;28;20041;-61
2023/06/18 08:48:44;;;;;;;24.80;15.60;;;;;;;;;;5007010;28;20052;-61
2023/06/18 08:51:11;;;;;;;28.63;16.02;;;;;;;;;;5005132;28;20037;-61
2023/06/18 08:53:44;;;;;;;25.80;15.63;;;;;;;;;;5006324;28;20045;-61
2023/06/18 08:56:14;;;;;;;23.90;14.90;;;;;;;;;;5016933;28;20030;-61
2023/06/18 08:58:48;;;;;;;25.30;15.30;;;;;;;;;;5012869;28;20094;-61
2023/06/18 09:01:15;;;;;;;21.23;15.48;;;;;;;;;;5007952;28;20422;-61
2023/06/18 09:03:42;;;;;;;24.05;15.43;;;;;;;;;;5004525;28;20042;-62
2023/06/18 09:06:11;;;;;;;25.73;15.80;;;;;;;;;;5001822;28;20046;-62
2023/06/18 09:08:38;;;;;;;23.55;15.65;;;;;;;;;;5011352;28;20042;-61
2023/06/18 09:11:05;;;;;;;25.60;16.42;;;;;;;;;;5023267;28;20037;-63
2023/06/18 09:13:32;;;;;;;22.95;16.00;;;;;;;;;;5000940;28;20048;-61
2023/06/18 09:15:59;;;;;;;24.67;16.60;;;;;;;;;;5004781;28;20030;-61
2023/06/18 09:18:26;;;;;;;24.40;15.77;;;;;;;;;;5009578;28;20054;-60
2023/06/18 09:20:53;;;;;;;27.95;16.98;;;;;;;;;;5002256;28;20030;-62
2023/06/18 09:23:19;;;;;;;25.42;16.80;;;;;;;;;;5010141;28;20034;-61
2023/06/18 09:25:54;;;;;;;26.55;16.42;;;;;;;;;;5019158;28;20046;-61
2023/06/18 09:28:22;;;;;;;27.35;15.90;;;;;;;;;;5010318;28;20049;-60
2023/06/18 09:31:01;;;;;;;21.70;15.60;;;;;;;;;;5003055;28;20026;-61
2023/06/18 09:33:27;;;;;;;26.55;16.40;;;;;;;;;;5014406;28;20058;-60
2023/06/18 09:36:05;;;;;;;25.15;16.52;;;;;;;;;;5005210;28;20049;-60
2023/06/18 09:38:41;;;;;;;27.15;16.83;;;;;;;;;;5023359;28;20043;-61
2023/06/18 09:41:17;;;;;;;21.95;16.00;;;;;;;;;;5005751;28;20419;-60
2023/06/18 09:43:47;;;;;;;25.73;16.05;;;;;;;;;;5003736;28;20041;-60
2023/06/18 09:46:15;;;;;;;27.85;17.00;;;;;;;;;;5003676;28;20057;-60
2023/06/18 09:48:46;;;;;;;22.00;17.15;;;;;;;;;;5015689;28;20049;-60
2023/06/18 09:51:16;;;;;;;28.08;18.98;;;;;;;;;;5006922;28;20614;-63
2023/06/18 09:53:45;;;;;;;29.50;17.23;;;;;;;;;;5003276;28;20631;-60
2023/06/18 09:56:16;;;;;;;25.52;16.23;;;;;;;;;;5003215;28;20030;-60
2023/06/18 09:58:51;;;;;;;31.48;17.23;;;;;;;;;;5004933;28;20266;-62
2023/06/18 10:01:19;;;;;;;45.28;25.92;;;;;;;;;;5000588;28;20037;-60
2023/06/18 10:03:46;;;;;;;26.25;17.58;;;;;;;;;;5003943;28;20510;-61
2023/06/18 10:06:15;;;;;;;25.20;16.52;;;;;;;;;;5003194;28;20044;-61
2023/06/18 10:08:46;;;;;;;22.38;15.93;;;;;;;;;;5004971;28;20499;-62
2023/06/18 10:11:13;;;;;;;24.63;16.95;;;;;;;;;;5002850;28;20483;-61
2023/06/18 10:13:42;;;;;;;25.20;16.45;;;;;;;;;;5004011;28;20113;-61
2023/06/18 10:16:12;;;;;;;24.15;16.77;;;;;;;;;;5004874;28;20038;-61
2023/06/18 10:19:01;;;;;;;22.25;16.73;;;;;;;;;;5001861;28;20036;-61
2023/06/18 10:21:28;;;;;;;22.88;15.82;;;;;;;;;;5006212;28;20045;-60
2023/06/18 10:24:22;;;;;;;23.70;15.68;;;;;;;;;;5017931;28;20558;-61
2023/06/18 10:26:49;;;;;;;35.30;16.25;;;;;;;;;;5003798;28;20058;-61
2023/06/18 10:29:16;;;;;;;24.40;16.15;;;;;;;;;;5009111;28;20050;-61
2023/06/18 10:31:42;;;;;;;20.80;15.57;;;;;;;;;;5010617;28;20046;-60
2023/06/18 10:34:08;;;;;;;26.00;15.93;;;;;;;;;;5001500;28;20042;-61
2023/06/18 10:36:36;;;;;;;25.45;16.25;;;;;;;;;;5005103;28;20038;-62
2023/06/18 10:39:03;;;;;;;22.00;15.85;;;;;;;;;;5004255;28;20030;-61
2023/06/18 10:41:29;;;;;;;25.40;16.65;;;;;;;;;;5015094;28;20053;-61
2023/06/18 10:43:55;;;;;;;25.02;17.15;;;;;;;;;;5015335;28;20033;-61
2023/06/18 10:46:22;;;;;;;22.17;16.42;;;;;;;;;;5012228;28;20412;-62
2023/06/18 10:49:15;;;;;;;22.52;16.42;;;;;;;;;;5018184;28;20522;-61
2023/06/18 10:52:05;;;;;;;24.70;15.85;;;;;;;;;;5002278;28;20404;-62
2023/06/18 10:54:31;;;;;;;23.10;16.60;;;;;;;;;;5001656;28;20049;-62
2023/06/18 10:56:58;;;;;;;24.67;16.63;;;;;;;;;;5002616;28;20026;-60
2023/06/18 10:59:45;;;;;;;27.58;17.13;;;;;;;;;;5004205;28;20033;-60
2023/06/18 11:02:12;;;;;;;25.98;16.30;;;;;;;;;;5013715;28;20026;-61
2023/06/18 11:04:40;;;;;;;23.45;16.95;;;;;;;;;;5001826;28;20090;-62
2023/06/18 11:07:23;;;;;;;26.23;17.02;;;;;;;;;;5007749;28;20045;-61
2023/06/18 11:09:52;;;;;;;25.75;16.98;;;;;;;;;;5008766;28;20404;-61
2023/06/18 11:12:27;;;;;;;23.20;16.52;;;;;;;;;;5006208;28;20049;-60
2023/06/18 11:15:20;;;;;;;24.48;16.52;;;;;;;;;;5000410;28;20041;-61
2023/06/18 11:17:51;;;;;;;22.88;16.50;;;;;;;;;;5005254;28;20041;-61
2023/06/18 11:20:20;;;;;;;22.60;16.45;;;;;;;;;;5007739;28;20034;-60
2023/06/18 11:22:47;;;;;;;22.95;16.75;;;;;;;;;;5005847;28;20045;-60
2023/06/18 11:25:17;;;;;;;26.30;17.48;;;;;;;;;;4997153;28;20050;-61
2023/06/18 11:27:50;;;;;;;27.33;17.08;;;;;;;;;;5018508;28;20503;-61
2023/06/18 11:30:17;;;;;;;32.35;17.50;;;;;;;;;;5011662;28;20049;-62
2023/06/18 11:32:44;;;;;;;30.58;17.23;;;;;;;;;;5008433;28;20034;-60
2023/06/18 11:35:12;;;;;;;26.50;17.05;;;;;;;;;;5016353;28;20036;-61
2023/06/18 11:37:40;;;;;;;27.02;17.65;;;;;;;;;;5010469;28;20056;-61
2023/06/18 11:40:07;;;;;;;25.63;17.95;;;;;;;;;;5011789;28;20050;-61
2023/06/18 11:42:34;;;;;;;27.38;18.48;;;;;;;;;;5005229;28;20038;-61
2023/06/18 11:45:03;;;;;;;27.67;18.00;;;;;;;;;;5019934;28;20129;-61
2023/06/18 11:47:32;;;;;;;29.15;17.38;;;;;;;;;;5006707;28;20064;-60
2023/06/18 11:49:59;;;;;;;27.73;17.52;;;;;;;;;;5023301;28;20032;-60
2023/06/18 11:52:26;;;;;;;30.05;18.40;;;;;;;;;;5014911;28;20052;-62
2023/06/18 11:54:54;;;;;;;29.30;18.92;;;;;;;;;;5011784;28;20050;-61
2023/06/18 11:57:23;;;;;;;26.67;17.55;;;;;;;;;;5009912;28;20057;-62
2023/06/18 11:59:54;;;;;;;26.90;17.55;;;;;;;;;;5014750;28;20046;-61
2023/06/18 12:02:22;;;;;;;30.13;17.90;;;;;;;;;;5006848;28;20042;-61
2023/06/18 12:04:49;;;;;;;28.52;18.50;;;;;;;;;;5001737;28;20041;-61
2023/06/18 12:07:16;;;;;;;26.60;18.07;;;;;;;;;;5001993;28;20042;-61
2023/06/18 12:09:45;;;;;;;28.52;17.77;;;;;;;;;;5003650;28;20476;-61
2023/06/18 12:12:29;;;;;;;24.90;17.73;;;;;;;;;;5004347;28;20049;-61
2023/06/18 12:15:17;;;;;;;30.65;17.67;;;;;;;;;;5005000;28;20308;-61
2023/06/18 12:18:02;;;;;;;27.77;17.92;;;;;;;;;;5010932;28;20037;-61
2023/06/18 12:20:29;;;;;;;28.20;17.92;;;;;;;;;;5022849;28;20049;-61
2023/06/18 12:22:56;;;;;;;25.77;16.98;;;;;;;;;;5007018;28;20034;-61
2023/06/18 12:25:24;;;;;;;25.80;17.45;;;;;;;;;;5019433;28;20041;-60
2023/06/18 12:27:50;;;;;;;28.95;16.70;;;;;;;;;;5006470;28;20046;-61
2023/06/18 12:30:17;;;;;;;26.25;16.80;;;;;;;;;;5004312;28;20038;-61
2023/06/18 12:33:03;;;;;;;24.77;16.90;;;;;;;;;;5010485;28;20037;-61
2023/06/18 12:35:30;;;;;;;24.52;17.40;;;;;;;;;;5001782;28;20033;-61
2023/06/18 12:38:08;;;;;;;26.63;17.70;;;;;;;;;;5006267;28;20037;-60
2023/06/18 12:40:47;;;;;;;24.10;16.20;;;;;;;;;;5004353;28;20038;-61
2023/06/18 12:43:16;;;;;;;21.70;16.25;;;;;;;;;;5004858;28;20038;-61
2023/06/18 12:45:42;;;;;;;;;;;;;;;;;;5009411;28;20045;-61
2023/06/18 12:48:17;;;;;;;26.67;16.55;;;;;;;;;;5007056;28;19929;-60
2023/06/18 12:50:50;;;;;;;21.50;15.60;;;;;;;;;;5017971;28;20050;-61
2023/06/18 12:53:17;;;;;;;24.13;16.77;;;;;;;;;;5008195;28;20037;-62
2023/06/18 12:55:48;;;;;;;25.13;16.48;;;;;;;;;;5004697;28;20049;-62
2023/06/18 12:58:23;;;;;;;25.38;16.58;;;;;;;;;;5005185;28;20058;-63
2023/06/18 13:00:54;;;;;;;21.15;15.52;;;;;;;;;;5009839;28;20807;-62
2023/06/18 13:03:21;;;;;;;24.70;16.35;;;;;;;;;;5003224;28;20533;-61
2023/06/18 13:05:48;;;;;;;23.20;16.30;;;;;;;;;;5006349;28;20423;-62
2023/06/18 13:08:17;;;;;;;23.73;15.48;;;;;;;;;;5016068;28;20049;-62
2023/06/18 13:10:44;;;;;;;19.92;14.73;;;;;;;;;;5004665;28;20056;-62
2023/06/18 13:13:10;;;;;;;25.85;15.68;;;;;;;;;;5018024;28;20045;-61
2023/06/18 13:15:37;;;;;;;22.55;15.02;;;;;;;;;;5006119;28;20110;-61
2023/06/18 13:18:03;;;;;;;22.77;15.18;;;;;;;;;;5009797;28;20033;-62
2023/06/18 13:20:30;;;;;;;26.75;15.25;;;;;;;;;;5009130;28;20438;-61
2023/06/18 13:22:57;;;;;;;18.23;14.25;;;;;;;;;;5012186;28;20065;-61
2023/06/18 13:25:23;;;;;;;22.58;15.48;;;;;;;;;;5009892;28;20033;-61
2023/06/18 13:27:49;;;;;;;19.95;14.95;;;;;;;;;;5009430;28;20045;-61
2023/06/18 13:30:15;;;;;;;19.50;15.05;;;;;;;;;;5002319;28;20040;-62
2023/06/18 13:32:41;;;;;;;22.63;15.98;;;;;;;;;;5004794;28;20034;-60
2023/06/18 13:35:07;;;;;;;25.13;15.35;;;;;;;;;;5006664;28;20050;-60
2023/06/18 13:37:34;;;;;;;26.65;17.20;;;;;;;;;;5006953;28;20042;-61
2023/06/18 13:40:01;;;;;;;26.10;17.30;;;;;;;;;;5010162;28;20420;-62
2023/06/18 13:42:28;;;;;;;23.73;16.93;;;;;;;;;;5008712;28;20045;-61
2023/06/18 13:44:55;;;;;;;21.55;16.70;;;;;;;;;;5011337;28;20058;-61
2023/06/18 13:47:21;;;;;;;21.52;16.98;;;;;;;;;;5017986;28;20042;-60
2023/06/18 13:49:48;;;;;;;24.38;16.00;;;;;;;;;;5005362;28;20046;-61
2023/06/18 13:52:14;;;;;;;23.13;15.45;;;;;;;;;;5003384;28;20049;-61
2023/06/18 13:54:40;;;;;;;23.90;15.38;;;;;;;;;;5002783;28;20053;-62
2023/06/18 13:57:07;;;;;;;42.85;26.52;;;;;;;;;;5020229;28;20037;-62
2023/06/18 13:59:33;;;;;;;24.33;17.65;;;;;;;;;;5014231;28;20046;-61
2023/06/18 14:01:59;;;;;;;22.45;15.63;;;;;;;;;;5021207;28;20081;-63
2023/06/18 14:04:25;;;;;;;22.67;15.85;;;;;;;;;;5005286;28;20049;-61
2023/06/18 14:06:52;;;;;;;20.98;14.82;;;;;;;;;;5006341;28;20411;-61
2023/06/18 14:09:18;;;;;;;22.27;15.15;;;;;;;;;;5005752;28;20401;-61
2023/06/18 14:11:45;;;;;;;25.67;16.25;;;;;;;;;;5019328;28;20455;-61
2023/06/18 14:14:11;;;;;;;20.80;14.48;;;;;;;;;;5009116;28;20041;-61
2023/06/18 14:16:37;;;;;;;21.95;16.45;;;;;;;;;;5007903;28;20029;-61
2023/06/18 14:19:04;;;;;;;21.60;16.88;;;;;;;;;;5010001;28;20045;-61
2023/06/18 14:21:30;;;;;;;22.38;16.13;;;;;;;;;;4999421;28;20038;-61
2023/06/18 14:23:56;;;;;;;23.42;16.42;;;;;;;;;;5006376;28;20040;-61
2023/06/18 14:26:23;;;;;;;23.05;16.70;;;;;;;;;;5010174;28;20044;-62